Weather at Dalaman International Airport

Public forecast

Using degrees Celsius for public forecast. Weather courtesy of forecast.io.

Current aviation weather report (METAR) for Dalaman International Airport

2024/02/24 03:20 (retrieved 32 minutes ago)

LTBS 240320Z 01004KT CAVOK 07/06 Q1021 NOSIG RMK RWY19 32004KT SKC

Closest aviation forecast (TAF) to Dalaman International Airport

Forecast is more than 12 hours old.

Closest forecast is Aleppo International Airport, 408.4 nm (756.3 km) E.

2024/02/22 18:33 (retrieved 1 day ago)

TAF TAF OSAP 221800Z 2218/2318 VRB03KT 5000 BR SCT030 TEMPO 2303/2306 2000 BR NSC